createdAt,value
2022-10-25T00:01:27.867Z,74.96
2022-10-25T00:03:56.101Z,74.98
2022-10-25T00:06:24.440Z,74.50
2022-10-25T00:08:52.368Z,73.51
2022-10-25T00:11:22.436Z,73.30
2022-10-25T00:13:51.355Z,73.66
2022-10-25T00:16:21.551Z,73.56
2022-10-25T00:18:49.746Z,72.93
2022-10-25T00:21:18.009Z,73.60
2022-10-25T00:23:46.399Z,73.61
2022-10-25T00:26:14.832Z,73.20
2022-10-25T00:28:43.120Z,72.65
2022-10-25T00:31:12.966Z,73.99
2022-10-25T00:33:43.053Z,75.24
2022-10-25T00:36:11.044Z,75.72
2022-10-25T00:38:39.439Z,75.40
2022-10-25T00:41:07.705Z,75.20
2022-10-25T00:43:37.313Z,74.95
2022-10-25T00:46:07.539Z,74.59
2022-10-25T00:48:35.810Z,74.23
2022-10-25T00:51:04.394Z,75.11
2022-10-25T00:53:35.039Z,74.89
2022-10-25T00:56:06.048Z,74.86
2022-10-25T00:58:36.183Z,74.91
2022-10-25T01:01:05.760Z,74.45
2022-10-25T01:03:34.938Z,73.93
2022-10-25T01:06:05.618Z,73.27
2022-10-25T01:08:34.407Z,72.71
2022-10-25T01:11:02.479Z,72.24
2022-10-25T01:13:30.354Z,72.57
2022-10-25T01:16:07.863Z,72.65
2022-10-25T01:18:53.177Z,72.28
2022-10-25T01:21:23.848Z,72.28
2022-10-25T01:24:21.260Z,72.12
2022-10-25T01:27:09.559Z,72.33
2022-10-25T01:29:49.412Z,72.14
2022-10-25T01:32:17.442Z,72.32
2022-10-25T01:34:50.470Z,72.19
2022-10-25T01:37:22.479Z,72.14
2022-10-25T01:40:05.900Z,71.96
2022-10-25T01:42:59.894Z,71.86
2022-10-25T01:45:29.029Z,71.11
2022-10-25T01:48:03.362Z,71.64
2022-10-25T01:50:32.979Z,72.01
2022-10-25T01:53:00.971Z,72.44
2022-10-25T01:55:38.136Z,72.74
2022-10-25T01:58:21.420Z,73.15
2022-10-25T02:00:52.451Z,73.49
2022-10-25T02:03:26.675Z,73.60
2022-10-25T02:06:00.817Z,73.67
2022-10-25T02:08:31.689Z,73.94
2022-10-25T02:11:05.589Z,74.24
2022-10-25T02:13:49.473Z,73.51
2022-10-25T02:16:20.558Z,73.62
2022-10-25T02:18:51.760Z,73.63
2022-10-25T02:21:20.648Z,73.79
2022-10-25T02:23:50.032Z,74.20
2022-10-25T02:26:18.938Z,74.58
2022-10-25T02:28:48.206Z,75.26
2022-10-25T02:31:17.716Z,75.01
2022-10-25T02:33:46.330Z,75.17
2022-10-25T02:36:17.198Z,74.79
2022-10-25T02:38:45.621Z,75.59
2022-10-25T02:41:14.015Z,77.21
2022-10-25T02:43:59.529Z,78.61
2022-10-25T02:46:27.567Z,77.67
2022-10-25T02:48:57.750Z,77.78
2022-10-25T02:51:25.906Z,77.36
2022-10-25T02:53:53.763Z,77.23
2022-10-25T02:56:22.685Z,76.03
2022-10-25T02:58:51.986Z,76.16
2022-10-25T03:01:21.458Z,75.07
2022-10-25T03:03:49.791Z,75.13
2022-10-25T03:06:18.143Z,75.02
2022-10-25T03:08:46.561Z,75.32
2022-10-25T03:11:16.153Z,76.67
2022-10-25T03:13:44.540Z,76.66
2022-10-25T03:16:12.500Z,77.23
2022-10-25T03:18:40.460Z,77.79
2022-10-25T03:21:08.504Z,77.52
2022-10-25T03:23:36.919Z,77.27
2022-10-25T03:26:05.202Z,78.29
2022-10-25T03:28:33.262Z,78.23
2022-10-25T03:31:01.460Z,77.27
2022-10-25T03:36:02.474Z,78.52
2022-10-25T03:38:30.360Z,77.42
2022-10-25T03:40:58.532Z,77.76
2022-10-25T03:43:26.814Z,79.25
2022-10-25T03:45:54.773Z,79.17
2022-10-25T03:48:22.852Z,78.87
2022-10-25T03:50:53.489Z,78.77
2022-10-25T03:53:21.332Z,79.33
2022-10-25T03:55:50.133Z,79.67
2022-10-25T03:58:18.323Z,79.08
2022-10-25T04:00:46.311Z,79.08
2022-10-25T04:03:14.428Z,79.20
2022-10-25T04:05:42.303Z,78.30
2022-10-25T04:08:10.123Z,77.84
2022-10-25T04:10:38.153Z,77.51
2022-10-25T04:13:06.142Z,76.36
2022-10-25T04:15:33.912Z,77.25
2022-10-25T04:18:01.944Z,76.65
2022-10-25T04:20:30.019Z,76.40
2022-10-25T04:22:58.085Z,75.83
2022-10-25T04:25:26.638Z,75.03
2022-10-25T04:27:55.067Z,74.16
2022-10-25T04:30:23.104Z,74.20
2022-10-25T04:32:51.521Z,74.08
2022-10-25T04:35:19.856Z,73.23
2022-10-25T04:37:47.656Z,72.63
2022-10-25T04:40:15.808Z,73.48
2022-10-25T04:42:44.082Z,73.76
2022-10-25T04:45:12.470Z,73.97
2022-10-25T04:47:40.536Z,73.65
2022-10-25T04:50:08.832Z,73.76
2022-10-25T04:52:36.638Z,74.03
2022-10-25T04:55:05.055Z,74.34
2022-10-25T04:57:32.864Z,74.89
2022-10-25T05:00:00.786Z,75.12
2022-10-25T05:02:29.098Z,74.62
2022-10-25T05:04:57.308Z,73.82
2022-10-25T05:07:25.325Z,72.80
2022-10-25T05:09:53.278Z,72.92
2022-10-25T05:12:23.251Z,72.98
2022-10-25T05:14:51.665Z,72.33
2022-10-25T05:17:20.043Z,71.91
2022-10-25T05:19:48.217Z,72.87
2022-10-25T05:22:16.256Z,74.22
2022-10-25T05:24:44.151Z,75.07
2022-10-25T05:27:12.018Z,74.75
2022-10-25T05:29:39.884Z,74.71
2022-10-25T05:32:08.060Z,74.36
2022-10-25T05:34:36.108Z,73.74
2022-10-25T05:37:04.631Z,74.03
2022-10-25T05:39:32.470Z,74.14
2022-10-25T05:42:02.622Z,73.52
2022-10-25T05:44:30.587Z,72.87
2022-10-25T05:46:58.630Z,72.62
2022-10-25T05:49:26.630Z,72.46
2022-10-25T05:51:55.078Z,72.68
2022-10-25T05:54:23.848Z,72.08
2022-10-25T05:56:52.042Z,71.39
2022-10-25T05:59:20.115Z,70.08
2022-10-25T06:01:48.165Z,68.83
2022-10-25T06:04:17.078Z,68.98
2022-10-25T06:06:46.065Z,68.90
2022-10-25T06:09:13.920Z,70.38
2022-10-25T06:11:42.000Z,71.44
2022-10-25T06:14:10.381Z,71.76
2022-10-25T06:16:39.145Z,72.55
2022-10-25T06:19:08.265Z,72.11
2022-10-25T06:21:36.667Z,71.71
2022-10-25T06:24:04.830Z,71.24
2022-10-25T06:26:32.841Z,71.21
2022-10-25T06:29:01.951Z,72.28
2022-10-25T06:31:30.829Z,72.80
2022-10-25T06:34:00.254Z,72.48
2022-10-25T06:36:28.398Z,72.93
2022-10-25T06:38:58.121Z,72.95
2022-10-25T06:41:29.025Z,72.91
2022-10-25T06:44:01.251Z,71.88
2022-10-25T06:46:33.273Z,72.07
2022-10-25T06:49:02.133Z,71.71
2022-10-25T06:51:30.077Z,71.82
2022-10-25T06:53:58.816Z,71.84
2022-10-25T06:56:27.692Z,72.00
2022-10-25T06:58:55.618Z,72.21
2022-10-25T07:01:24.854Z,71.22
2022-10-25T07:03:54.638Z,70.39
2022-10-25T07:06:30.027Z,70.21
2022-10-25T07:09:01.109Z,70.26
2022-10-25T07:11:30.414Z,70.66
2022-10-25T07:13:59.255Z,70.83
2022-10-25T07:16:27.661Z,71.29
2022-10-25T07:19:03.823Z,71.53
2022-10-25T07:21:32.528Z,72.36
2022-10-25T07:24:00.653Z,71.99
2022-10-25T07:26:30.965Z,72.45
2022-10-25T07:29:00.174Z,73.16
2022-10-25T07:31:30.085Z,72.69
2022-10-25T07:33:59.533Z,73.02
2022-10-25T07:36:28.114Z,74.35
2022-10-25T07:38:57.226Z,74.21
2022-10-25T07:41:25.766Z,73.80
2022-10-25T07:43:54.547Z,73.45
2022-10-25T07:46:22.909Z,72.72
2022-10-25T07:48:52.605Z,72.29
2022-10-25T07:51:20.411Z,71.48
2022-10-25T07:53:48.705Z,71.19
2022-10-25T07:56:22.180Z,71.80
2022-10-25T07:58:52.534Z,72.34
2022-10-25T08:01:22.283Z,72.18
2022-10-25T08:03:51.572Z,71.58
2022-10-25T08:06:21.825Z,71.31
2022-10-25T08:08:49.895Z,71.05
2022-10-25T08:11:17.900Z,70.45
2022-10-25T08:13:47.959Z,70.11
2022-10-25T08:16:15.756Z,69.37
2022-10-25T08:18:44.275Z,68.35
2022-10-25T08:21:12.292Z,67.86
2022-10-25T08:23:40.303Z,68.09
2022-10-25T08:26:08.680Z,68.77
2022-10-25T08:28:36.885Z,67.31
2022-10-25T08:31:04.820Z,65.71
2022-10-25T08:33:33.943Z,64.36
2022-10-25T08:36:02.396Z,63.87
2022-10-25T08:38:30.542Z,64.37
2022-10-25T08:41:15.129Z,63.65
2022-10-25T08:43:43.037Z,62.56
2022-10-25T08:46:16.351Z,62.48
2022-10-25T08:48:46.824Z,63.41
2022-10-25T08:51:34.223Z,63.26
2022-10-25T08:54:05.343Z,62.96
2022-10-25T08:56:33.247Z,63.47
2022-10-25T08:59:01.948Z,65.09
2022-10-25T09:01:36.401Z,66.22
2022-10-25T09:04:04.652Z,67.16
2022-10-25T09:06:36.181Z,68.35
2022-10-25T09:09:16.673Z,68.89
2022-10-25T09:11:45.098Z,68.53
2022-10-25T09:14:13.193Z,68.34
2022-10-25T09:17:02.531Z,68.25
2022-10-25T09:19:44.479Z,68.13
2022-10-25T09:22:18.982Z,69.08
2022-10-25T09:24:47.120Z,69.44
2022-10-25T09:27:19.528Z,70.34
2022-10-25T09:29:50.950Z,70.02
2022-10-25T09:32:22.948Z,69.64
2022-10-25T09:34:53.267Z,68.96
2022-10-25T09:37:26.297Z,68.70
2022-10-25T09:39:56.469Z,68.30
2022-10-25T09:42:26.228Z,67.75
2022-10-25T09:44:56.509Z,67.59
2022-10-25T09:47:43.770Z,67.40
2022-10-25T09:50:17.889Z,67.51
2022-10-25T09:52:51.310Z,68.14
2022-10-25T09:55:27.701Z,68.15
2022-10-25T09:57:55.668Z,68.12
2022-10-25T10:00:23.639Z,68.15
2022-10-25T10:02:51.758Z,68.03
2022-10-25T10:05:20.915Z,68.38
2022-10-25T10:07:50.178Z,69.42
2022-10-25T10:10:25.183Z,69.40
2022-10-25T10:13:02.634Z,68.81
2022-10-25T10:15:32.133Z,68.32
2022-10-25T10:18:18.766Z,67.63
2022-10-25T10:21:14.121Z,67.08
2022-10-25T10:23:43.252Z,66.19
2022-10-25T10:26:14.180Z,65.78
2022-10-25T10:28:47.017Z,65.50
2022-10-25T10:31:15.341Z,66.19
2022-10-25T10:33:48.496Z,66.43
2022-10-25T10:36:22.304Z,67.23
2022-10-25T10:38:50.714Z,67.82
2022-10-25T10:41:24.766Z,68.08
2022-10-25T10:44:07.708Z,67.65
2022-10-25T10:46:35.528Z,66.90
2022-10-25T10:49:03.920Z,67.13
2022-10-25T10:51:45.444Z,67.28
2022-10-25T10:54:27.125Z,67.32
2022-10-25T10:56:56.226Z,66.89
2022-10-25T10:59:29.763Z,66.29
2022-10-25T11:01:58.430Z,66.17
2022-10-25T11:04:26.711Z,65.71
2022-10-25T11:07:12.787Z,65.63
2022-10-25T11:09:40.908Z,65.59
2022-10-25T11:12:12.643Z,65.74
2022-10-25T11:14:40.927Z,66.66
2022-10-25T11:17:12.585Z,66.78
2022-10-25T11:19:47.273Z,66.71
2022-10-25T11:22:15.214Z,67.08
2022-10-25T11:24:50.598Z,67.25
2022-10-25T11:27:18.775Z,67.55
2022-10-25T11:29:54.838Z,67.40
2022-10-25T11:35:28.765Z,66.84
2022-10-25T11:38:07.387Z,67.81
2022-10-25T11:40:44.383Z,68.75
2022-10-25T11:43:15.463Z,69.21
2022-10-25T11:45:44.398Z,69.44
2022-10-25T11:48:23.733Z,69.40
2022-10-25T11:50:51.509Z,69.73
2022-10-25T11:53:26.737Z,69.29
2022-10-25T11:55:57.826Z,67.95
2022-10-25T11:58:44.679Z,67.78
2022-10-25T12:01:15.690Z,67.82
2022-10-25T12:04:02.493Z,67.66
2022-10-25T12:06:36.551Z,67.56
2022-10-25T12:09:04.925Z,67.32
2022-10-25T12:11:47.130Z,67.22
2022-10-25T12:14:16.940Z,66.66
2022-10-25T12:16:45.423Z,66.44
2022-10-25T12:19:16.572Z,65.72
2022-10-25T12:22:01.688Z,64.97
2022-10-25T12:24:45.152Z,65.58
2022-10-25T12:27:16.814Z,67.95
2022-10-25T12:29:48.275Z,68.70
2022-10-25T12:32:21.568Z,67.84
2022-10-25T12:34:51.279Z,68.48
2022-10-25T12:37:38.395Z,68.62
2022-10-25T12:40:08.030Z,69.22
2022-10-25T12:42:42.285Z,68.69
2022-10-25T12:45:29.414Z,69.19
2022-10-25T12:48:12.662Z,70.48
2022-10-25T12:50:46.893Z,71.33
2022-10-25T12:53:20.850Z,71.36
2022-10-25T12:56:11.996Z,71.73
2022-10-25T12:58:48.571Z,71.42
2022-10-25T13:01:27.765Z,71.03
2022-10-25T13:03:58.697Z,70.42
2022-10-25T13:06:29.549Z,70.48
2022-10-25T13:09:14.849Z,70.75
2022-10-25T13:12:03.136Z,71.14
2022-10-25T13:14:36.701Z,71.32
2022-10-25T13:17:16.969Z,71.81
2022-10-25T13:19:54.520Z,72.05
2022-10-25T13:22:40.146Z,72.86
2022-10-25T13:25:08.614Z,72.94
2022-10-25T13:27:37.596Z,72.96
2022-10-25T13:30:08.854Z,73.22
2022-10-25T13:32:38.738Z,73.13
2022-10-25T13:35:22.701Z,73.15
2022-10-25T13:37:53.440Z,72.45
2022-10-25T13:40:21.357Z,71.99
2022-10-25T13:42:57.282Z,71.40
2022-10-25T13:45:33.371Z,70.73
2022-10-25T13:48:17.359Z,70.57
2022-10-25T13:50:47.228Z,70.87
2022-10-25T13:53:24.588Z,70.59
2022-10-25T13:56:11.351Z,69.99
2022-10-25T13:58:53.085Z,69.85
2022-10-25T14:01:25.570Z,70.02
2022-10-25T14:04:02.672Z,70.33
2022-10-25T14:06:31.923Z,70.35
2022-10-25T14:09:12.586Z,70.13
2022-10-25T14:11:55.610Z,70.49
2022-10-25T14:14:32.627Z,70.98
2022-10-25T14:17:19.666Z,71.77
2022-10-25T14:19:49.065Z,71.73
2022-10-25T14:22:18.948Z,72.00
2022-10-25T14:24:49.649Z,72.45
2022-10-25T14:27:29.227Z,72.97
2022-10-25T14:32:49.849Z,72.87
2022-10-25T14:35:18.489Z,72.99
2022-10-25T14:37:46.388Z,72.68
2022-10-25T14:40:23.347Z,72.70
2022-10-25T14:42:53.804Z,72.72
2022-10-25T14:45:26.397Z,72.57
2022-10-25T14:47:54.624Z,72.89
2022-10-25T14:50:25.757Z,73.23
2022-10-25T14:52:56.890Z,73.68
2022-10-25T14:55:30.602Z,74.03
2022-10-25T14:58:00.519Z,74.46
2022-10-25T15:00:28.758Z,75.00
2022-10-25T15:03:02.228Z,74.06
2022-10-25T15:05:30.260Z,74.72
2022-10-25T15:07:59.371Z,74.65
2022-10-25T15:10:35.903Z,74.23
2022-10-25T15:13:14.045Z,74.50
2022-10-25T15:15:45.241Z,74.15
2022-10-25T15:18:39.265Z,73.88
2022-10-25T15:21:12.963Z,73.59
2022-10-25T15:23:41.937Z,73.59
2022-10-25T15:26:20.004Z,74.01
2022-10-25T15:28:49.228Z,74.68
2022-10-25T15:31:24.553Z,74.78
2022-10-25T15:33:56.760Z,74.86
2022-10-25T15:36:26.540Z,74.51
2022-10-25T15:39:16.514Z,74.47
2022-10-25T15:41:43.354Z,74.98
2022-10-25T15:44:11.559Z,75.51
2022-10-25T15:46:40.534Z,74.98
2022-10-25T15:49:11.675Z,75.35
2022-10-25T15:51:41.009Z,74.94
2022-10-25T15:54:16.563Z,75.13
2022-10-25T15:56:45.276Z,76.18
2022-10-25T15:59:13.842Z,76.17
2022-10-25T16:01:43.649Z,74.64
2022-10-25T16:04:15.804Z,74.51
2022-10-25T16:06:44.282Z,76.07
2022-10-25T16:09:12.430Z,76.20
2022-10-25T16:11:43.697Z,75.45
2022-10-25T16:14:22.530Z,76.08
2022-10-25T16:16:50.802Z,77.34
2022-10-25T16:19:22.466Z,77.97
2022-10-25T16:21:51.251Z,77.95
2022-10-25T16:24:19.825Z,77.66
2022-10-25T16:26:48.599Z,77.12
2022-10-25T16:29:18.021Z,76.59
2022-10-25T16:31:46.028Z,76.94
2022-10-25T16:34:17.525Z,77.65
2022-10-25T16:36:46.704Z,77.29
2022-10-25T16:39:15.259Z,77.01
2022-10-25T16:41:44.363Z,77.09
2022-10-25T16:44:13.201Z,76.86
2022-10-25T16:46:41.327Z,77.00
2022-10-25T16:49:09.562Z,77.60
2022-10-25T16:51:38.539Z,77.44
2022-10-25T16:54:07.228Z,77.25
2022-10-25T16:56:35.918Z,77.59
2022-10-25T16:59:04.349Z,77.63
2022-10-25T17:01:34.694Z,78.24
2022-10-25T17:04:04.589Z,78.45
2022-10-25T17:06:47.733Z,78.27
2022-10-25T17:09:16.644Z,77.57
2022-10-25T17:11:45.379Z,77.28
2022-10-25T17:14:14.344Z,76.83
2022-10-25T17:16:43.834Z,76.54
2022-10-25T17:19:12.412Z,76.55
2022-10-25T17:21:40.588Z,77.23
2022-10-25T17:24:10.020Z,77.49
2022-10-25T17:26:38.720Z,78.06
2022-10-25T17:29:06.953Z,78.46
2022-10-25T17:31:35.010Z,78.91
2022-10-25T17:34:03.593Z,78.78
2022-10-25T17:36:32.618Z,79.03
2022-10-25T17:39:00.788Z,79.10
2022-10-25T17:41:28.932Z,79.05
2022-10-25T17:43:57.084Z,78.45
2022-10-25T17:46:27.765Z,77.94
2022-10-25T17:48:56.811Z,77.87
2022-10-25T17:51:25.086Z,78.27
2022-10-25T17:53:54.514Z,78.52
2022-10-25T17:56:23.841Z,78.89
2022-10-25T17:58:52.809Z,78.87
2022-10-25T18:01:23.318Z,78.39
2022-10-25T18:03:51.507Z,77.71
2022-10-25T18:08:55.533Z,77.79
2022-10-25T18:11:24.904Z,77.68
2022-10-25T18:13:55.257Z,77.19
2022-10-25T18:16:26.467Z,76.88
2022-10-25T18:18:58.982Z,76.85
2022-10-25T18:21:27.665Z,77.09
2022-10-25T18:23:59.747Z,77.83
2022-10-25T18:26:28.323Z,78.16
2022-10-25T18:28:57.299Z,78.02
2022-10-25T18:31:27.342Z,77.39
2022-10-25T18:33:56.352Z,77.50
2022-10-25T18:36:25.096Z,77.80
2022-10-25T18:38:54.875Z,78.29
2022-10-25T18:41:25.335Z,78.06
2022-10-25T18:43:55.055Z,78.37
2022-10-25T18:46:23.728Z,78.66
2022-10-25T18:48:52.724Z,78.86
2022-10-25T18:51:22.230Z,78.83
2022-10-25T18:53:53.756Z,78.53
2022-10-25T18:56:22.282Z,78.90
2022-10-25T18:58:51.129Z,78.74
2022-10-25T19:01:22.331Z,78.62
2022-10-25T19:03:51.355Z,79.27
2022-10-25T19:06:19.446Z,79.46
2022-10-25T19:08:49.235Z,79.73
2022-10-25T19:11:17.112Z,79.48
2022-10-25T19:13:48.902Z,80.99
2022-10-25T19:16:19.694Z,82.50
2022-10-25T19:18:48.389Z,82.28
2022-10-25T19:21:18.644Z,81.34
2022-10-25T19:23:47.125Z,80.94
2022-10-25T19:26:16.551Z,80.55
2022-10-25T19:28:44.824Z,80.19
2022-10-25T19:31:14.515Z,79.70
2022-10-25T19:33:46.406Z,79.69
2022-10-25T19:36:14.541Z,80.70
2022-10-25T19:38:43.329Z,80.52
2022-10-25T19:41:13.995Z,80.84
2022-10-25T19:43:41.939Z,80.68
2022-10-25T19:46:11.173Z,80.56
2022-10-25T19:48:39.200Z,81.36
2022-10-25T19:51:09.110Z,82.22
2022-10-25T19:53:37.072Z,82.97
2022-10-25T19:56:06.791Z,82.70
2022-10-25T19:58:35.630Z,82.71
2022-10-25T20:01:09.314Z,82.26
2022-10-25T20:03:38.337Z,83.08
2022-10-25T20:06:08.484Z,83.40
2022-10-25T20:08:37.378Z,83.55
2022-10-25T20:11:06.475Z,83.93
2022-10-25T20:13:35.052Z,83.48
2022-10-25T20:16:03.600Z,82.97
2022-10-25T20:18:33.267Z,82.57
2022-10-25T20:21:15.005Z,82.90
2022-10-25T20:23:49.364Z,82.84
2022-10-25T20:26:21.588Z,82.63
2022-10-25T20:28:52.146Z,82.37
2022-10-25T20:31:23.099Z,81.77
2022-10-25T20:33:51.768Z,81.71
2022-10-25T20:36:19.767Z,82.46
2022-10-25T20:38:47.626Z,83.04
2022-10-25T20:41:17.347Z,83.15
2022-10-25T20:43:46.553Z,84.12
2022-10-25T20:46:14.580Z,85.35
2022-10-25T20:48:42.855Z,85.63
2022-10-25T20:51:13.507Z,85.44
2022-10-25T20:53:45.711Z,85.90
2022-10-25T20:56:13.883Z,86.24
2022-10-25T20:58:41.963Z,86.32
2022-10-25T21:01:10.516Z,86.31
2022-10-25T21:03:39.777Z,86.61
2022-10-25T21:06:10.897Z,87.23
2022-10-25T21:08:39.369Z,87.38
2022-10-25T21:11:09.470Z,87.63
2022-10-25T21:13:38.307Z,87.75
2022-10-25T21:16:07.812Z,87.24
2022-10-25T21:18:37.418Z,87.52
2022-10-25T21:21:06.999Z,87.51
2022-10-25T21:23:35.412Z,87.77
2022-10-25T21:26:05.039Z,87.61
2022-10-25T21:28:37.337Z,86.93
2022-10-25T21:31:06.788Z,86.65
2022-10-25T21:33:35.059Z,86.50
2022-10-25T21:36:07.491Z,86.22
2022-10-25T21:38:35.768Z,85.86
2022-10-25T21:41:08.121Z,86.30
2022-10-25T21:43:36.967Z,86.22
2022-10-25T21:46:05.672Z,85.95
2022-10-25T21:48:34.647Z,85.97
2022-10-25T21:51:03.125Z,86.52
2022-10-25T21:53:31.715Z,87.33
2022-10-25T21:56:07.007Z,87.81
2022-10-25T21:58:35.095Z,88.15
2022-10-25T22:01:06.334Z,87.11
2022-10-25T22:03:34.305Z,86.49
2022-10-25T22:06:02.518Z,86.71
2022-10-25T22:08:30.312Z,86.94
2022-10-25T22:13:27.986Z,86.93
2022-10-25T22:16:07.080Z,86.40
2022-10-25T22:18:34.943Z,86.62
2022-10-25T22:21:05.109Z,86.79
2022-10-25T22:23:33.934Z,85.89
2022-10-25T22:26:02.973Z,85.62
2022-10-25T22:28:33.333Z,85.75
2022-10-25T22:31:14.138Z,85.74
2022-10-25T22:33:43.130Z,85.11
2022-10-25T22:36:12.431Z,85.65
2022-10-25T22:38:40.395Z,86.90
2022-10-25T22:41:18.657Z,86.47
2022-10-25T22:43:47.115Z,85.61
2022-10-25T22:46:16.893Z,85.17
2022-10-25T22:48:45.427Z,85.03
2022-10-25T22:51:13.343Z,85.26
2022-10-25T22:53:41.899Z,85.31
2022-10-25T22:56:11.891Z,85.25
2022-10-25T22:58:40.528Z,85.26
2022-10-25T23:01:12.598Z,85.36
2022-10-25T23:03:40.826Z,85.36
2022-10-25T23:06:11.862Z,86.03
2022-10-25T23:08:39.976Z,86.18
2022-10-25T23:11:13.681Z,85.97
2022-10-25T23:13:42.096Z,85.76
2022-10-25T23:16:11.150Z,85.53
2022-10-25T23:18:39.854Z,85.57
2022-10-25T23:21:10.071Z,85.80
2022-10-25T23:23:38.868Z,85.75
2022-10-25T23:28:40.515Z,85.41
2022-10-25T23:31:12.545Z,85.66
2022-10-25T23:33:42.049Z,86.04
2022-10-25T23:36:17.421Z,86.76
2022-10-25T23:38:49.179Z,87.19
2022-10-25T23:41:17.806Z,86.80
2022-10-25T23:43:46.038Z,86.95
2022-10-25T23:46:14.276Z,86.81
2022-10-25T23:48:42.261Z,86.29
2022-10-25T23:51:14.861Z,85.92
2022-10-25T23:53:43.233Z,84.90
2022-10-25T23:56:12.233Z,84.79
2022-10-25T23:58:40.269Z,84.18
